This is the latest recevied weather packets stored in our database for station/object SP3SWJ-13. If no packets are shown the sender has not sent any weather packets the latest 10 day(s).
| Time | Temp. | Humidity | Pressure | Rain* | Wind** | Luminosity | Snow |
|---|---|---|---|---|---|---|---|
| 1777674863 | 11.67° C | 64% | 1015.8 hPa | - | - | - | - |
| 1777674563 | 11.67° C | 63% | 1015.8 hPa | - | - | - | - |
| 1777674262 | 12.22° C | 62% | 1015.8 hPa | - | - | - | - |
| 1777673961 | 11.67° C | 62% | 1015.9 hPa | - | - | - | - |
| 1777673659 | 12.22° C | 63% | 1015.9 hPa | - | - | - | - |
| 1777673358 | 12.22° C | 64% | 1015.9 hPa | - | - | - | - |
| 1777673057 | 12.22° C | 63% | 1015.9 hPa | - | - | - | - |
| 1777672757 | 12.78° C | 61% | 1016 hPa | - | - | - | - |
| 1777672456 | 12.22° C | 60% | 1016 hPa | - | - | - | - |
| 1777672155 | 12.22° C | 61% | 1016 hPa | - | - | - | - |
| 1777671854 | 12.22° C | 61% | 1016 hPa | - | - | - | - |
| 1777671553 | 12.78° C | 60% | 1015.9 hPa | - | - | - | - |
| 1777671252 | 13.89° C | 53% | 1015.9 hPa | - | - | - | - |
| 1777670951 | 13.89° C | 54% | 1015.8 hPa | - | - | - | - |
| 1777670651 | 13.33° C | 56% | 1015.8 hPa | - | - | - | - |
| 1777670350 | 13.33° C | 58% | 1015.9 hPa | - | - | - | - |
| 1777670049 | 13.33° C | 57% | 1015.8 hPa | - | - | - | - |
| 1777669747 | 13.89° C | 56% | 1015.7 hPa | - | - | - | - |
| 1777669447 | 13.89° C | 55% | 1015.8 hPa | - | - | - | - |
| 1777669146 | 14.44° C | 52% | 1015.8 hPa | - | - | - | - |
| 1777668845 | 15.56° C | 47% | 1015.8 hPa | - | - | - | - |
| 1777668544 | 16.11° C | 45% | 1015.7 hPa | - | - | - | - |
| 1777668243 | 16.11° C | 45% | 1015.8 hPa | - | - | - | - |
| 1777667943 | 16.11° C | 45% | 1015.7 hPa | - | - | - | - |
| 1777667642 | 16.11° C | 46% | 1015.8 hPa | - | - | - | - |
* Rain since midnight (hover to see other rain measurements)
** Current wind speed in m/s (hover to see current wind gust speed)